Altha, FL

1:49 PM CDT on September 01, 2014 (GMT -0500)
Silver Lake Road | Change Station
CLOSE
Current Station
Personal Weather Station
Location: Fountain, FL
Elevation: 178 ft
Nearby Weather Stations

Elev 178 ft 30.48 °N, 85.47 °W | Updated 5 seconds ago

Clear
Clear
94.5 °F
Feels Like 111 °F
N
3.6
Wind Variable Wind from WSW
Gusts 3.6 mph

Today
High -- | Low -- °F
--% Chance of Precip.
Yesterday
High -- | Low -- °F
Precip. -- in
6:17 AM 7:03 PM
Waxing Crescent, 43% visible
Pressure 30.08 in
Visibility 10.0 miles
Clouds Clear
Heat Index 111 °F
Dew Point 78 °F
Humidity 59%
Rainfall 0.04 in
Snow Depth Not available.
UV 12 out of 12
Pollen 7.70 out of 12
Air Quality Not available.
Flu Activity Not available.
METAR KMAI 011753Z AUTO 00000KT 10SM CLR 34/22 A3009 RMK AO2 SLP186 T03390222 10339 20233 58013 $

More Conditions Fewer Conditions

Pressure 30.08 in
Visibility 10.0 miles
Clouds Clear
Heat Index 111 °F
Dew Point 78 °F
Humidity 59%
Rainfall 0.04 in
Snow Depth Not available.
UV 12 out of 12
Pollen 7.70 out of 12
Air Quality Not available.
Flu Activity Not available.
METAR KMAI 011753Z AUTO 00000KT 10SM CLR 34/22 A3009 RMK AO2 SLP186 T03390222 10339 20233 58013 $

More Conditions Fewer Conditions

10-Day Weather Forecast

Almanac

Astronomy

Sep. 01, 2014 Rise Set
Actual Time 6:17 AM CDT 7:03 PM CDT
Civil Twilight 5:52 AM CDT 7:28 PM CDT
Nautical Twilight 5:24 AM CDT 7:56 PM CDT
Astronomical Twilight 4:54 AM CDT 8:26 PM CDT
Moon 12:34 PM CDT 11:32 PM CDT
Length of Visible Light 13h 35m
Length of Day
12h 46m
Tomorrow will be 1m 47s shorter.
Waxing Crescent, 43% of the Moon is Illuminated
Today
Waxing Crescent
Sep 2
First Quarter
Sep 8
Full
Sep 15
Last Quarter
Sep 24
New

Today's Extremes

State Highs State Lows

Community

WunderPhotos

Upload Photos

1,749,359 photos uploaded!

Nearby

Snow Depth

Station Depth Elevation
No new snow has been reported.

Earthquake Activity

City Distance Mag. Time & Date
No recent earthquake activity has been reported nearby.
Minimum magnitude displayed is 2.5.

Coastal Water Temperatures

Place Temperature
Panama City, FL 88.0 °F
Panama City Beach, FL 87.1 °F
Apalachicola, FL 87.1 °F

Nearby Weather Stations